sensor_id;sensor_type;location;lat;lon;timestamp;P1;durP1;ratioP1;P2;durP2;ratioP2
34832;SDS011;55941;50.800;4.342;2023-05-10T00:00:26;29.15;;;10.35;;
34832;SDS011;55941;50.800;4.342;2023-05-10T00:02:52;24.65;;;9.60;;
34832;SDS011;55941;50.800;4.342;2023-05-10T00:05:18;20.23;;;10.63;;
34832;SDS011;55941;50.800;4.342;2023-05-10T00:07:44;23.27;;;10.50;;
34832;SDS011;55941;50.800;4.342;2023-05-10T00:10:10;24.52;;;10.85;;
34832;SDS011;55941;50.800;4.342;2023-05-10T00:12:36;27.38;;;9.38;;
34832;SDS011;55941;50.800;4.342;2023-05-10T00:15:02;21.98;;;9.55;;
34832;SDS011;55941;50.800;4.342;2023-05-10T00:17:28;23.50;;;9.80;;
34832;SDS011;55941;50.800;4.342;2023-05-10T00:19:54;23.52;;;9.50;;
34832;SDS011;55941;50.800;4.342;2023-05-10T00:22:20;20.95;;;9.93;;
34832;SDS011;55941;50.800;4.342;2023-05-10T00:24:47;22.20;;;9.30;;
34832;SDS011;55941;50.800;4.342;2023-05-10T00:27:13;24.00;;;9.77;;
34832;SDS011;55941;50.800;4.342;2023-05-10T00:29:39;21.20;;;9.48;;
34832;SDS011;55941;50.800;4.342;2023-05-10T00:32:05;21.65;;;10.20;;
34832;SDS011;55941;50.800;4.342;2023-05-10T00:34:31;23.35;;;9.80;;
34832;SDS011;55941;50.800;4.342;2023-05-10T00:36:56;26.60;;;11.32;;
34832;SDS011;55941;50.800;4.342;2023-05-10T00:39:22;19.33;;;9.35;;
34832;SDS011;55941;50.800;4.342;2023-05-10T00:41:51;17.88;;;9.40;;
34832;SDS011;55941;50.800;4.342;2023-05-10T00:44:17;23.35;;;9.95;;
34832;SDS011;55941;50.800;4.342;2023-05-10T00:46:43;22.20;;;10.40;;
34832;SDS011;55941;50.800;4.342;2023-05-10T00:49:10;27.40;;;11.18;;
34832;SDS011;55941;50.800;4.342;2023-05-10T00:51:36;18.08;;;10.20;;
34832;SDS011;55941;50.800;4.342;2023-05-10T00:54:03;25.52;;;10.48;;
34832;SDS011;55941;50.800;4.342;2023-05-10T00:56:30;19.45;;;10.63;;
34832;SDS011;55941;50.800;4.342;2023-05-10T00:58:56;21.00;;;10.10;;
34832;SDS011;55941;50.800;4.342;2023-05-10T01:01:22;24.90;;;10.32;;
34832;SDS011;55941;50.800;4.342;2023-05-10T01:03:48;27.08;;;11.25;;
34832;SDS011;55941;50.800;4.342;2023-05-10T01:06:15;26.70;;;10.77;;
34832;SDS011;55941;50.800;4.342;2023-05-10T01:08:41;27.13;;;11.38;;
34832;SDS011;55941;50.800;4.342;2023-05-10T01:11:07;23.30;;;11.75;;
34832;SDS011;55941;50.800;4.342;2023-05-10T01:13:34;22.17;;;11.55;;
34832;SDS011;55941;50.800;4.342;2023-05-10T01:16:03;22.95;;;12.77;;
34832;SDS011;55941;50.800;4.342;2023-05-10T01:18:30;23.80;;;12.55;;
34832;SDS011;55941;50.800;4.342;2023-05-10T01:23:59;23.30;;;12.43;;
34832;SDS011;55941;50.800;4.342;2023-05-10T01:27:02;27.95;;;12.77;;
34832;SDS011;55941;50.800;4.342;2023-05-10T01:32:30;29.95;;;13.48;;
34832;SDS011;55941;50.800;4.342;2023-05-10T01:35:22;32.65;;;14.13;;
34832;SDS011;55941;50.800;4.342;2023-05-10T01:38:04;30.80;;;13.07;;
34832;SDS011;55941;50.800;4.342;2023-05-10T01:43:36;28.38;;;14.63;;
34832;SDS011;55941;50.800;4.342;2023-05-10T01:46:09;21.30;;;13.90;;
34832;SDS011;55941;50.800;4.342;2023-05-10T01:48:52;29.40;;;14.45;;
34832;SDS011;55941;50.800;4.342;2023-05-10T01:51:23;26.73;;;14.45;;
34832;SDS011;55941;50.800;4.342;2023-05-10T01:53:53;33.50;;;14.48;;
34832;SDS011;55941;50.800;4.342;2023-05-10T01:56:25;33.72;;;16.15;;
34832;SDS011;55941;50.800;4.342;2023-05-10T01:58:53;39.88;;;17.00;;
34832;SDS011;55941;50.800;4.342;2023-05-10T02:01:20;31.52;;;15.18;;
34832;SDS011;55941;50.800;4.342;2023-05-10T02:03:48;33.25;;;15.98;;
34832;SDS011;55941;50.800;4.342;2023-05-10T02:06:16;37.13;;;17.23;;
34832;SDS011;55941;50.800;4.342;2023-05-10T02:08:45;31.33;;;15.30;;
34832;SDS011;55941;50.800;4.342;2023-05-10T02:11:12;28.63;;;15.52;;
34832;SDS011;55941;50.800;4.342;2023-05-10T02:13:39;31.30;;;16.20;;
34832;SDS011;55941;50.800;4.342;2023-05-10T02:16:06;32.25;;;15.30;;
34832;SDS011;55941;50.800;4.342;2023-05-10T02:18:33;33.45;;;16.05;;
34832;SDS011;55941;50.800;4.342;2023-05-10T02:21:01;29.38;;;13.85;;
34832;SDS011;55941;50.800;4.342;2023-05-10T02:23:29;27.45;;;13.27;;
34832;SDS011;55941;50.800;4.342;2023-05-10T02:25:56;30.13;;;14.35;;
34832;SDS011;55941;50.800;4.342;2023-05-10T02:28:24;27.00;;;13.65;;
34832;SDS011;55941;50.800;4.342;2023-05-10T02:30:51;29.98;;;14.60;;
34832;SDS011;55941;50.800;4.342;2023-05-10T02:33:17;24.48;;;13.07;;
34832;SDS011;55941;50.800;4.342;2023-05-10T02:35:45;23.95;;;13.45;;
34832;SDS011;55941;50.800;4.342;2023-05-10T02:38:14;29.85;;;14.25;;
34832;SDS011;55941;50.800;4.342;2023-05-10T02:40:42;29.83;;;13.13;;
34832;SDS011;55941;50.800;4.342;2023-05-10T02:43:09;26.83;;;12.73;;
34832;SDS011;55941;50.800;4.342;2023-05-10T02:45:39;24.42;;;11.95;;
34832;SDS011;55941;50.800;4.342;2023-05-10T02:48:06;26.55;;;12.82;;
34832;SDS011;55941;50.800;4.342;2023-05-10T02:50:33;23.67;;;11.70;;
34832;SDS011;55941;50.800;4.342;2023-05-10T02:53:01;24.63;;;12.27;;
34832;SDS011;55941;50.800;4.342;2023-05-10T02:55:38;29.00;;;12.75;;
34832;SDS011;55941;50.800;4.342;2023-05-10T02:58:06;24.50;;;12.18;;
34832;SDS011;55941;50.800;4.342;2023-05-10T03:00:33;23.40;;;12.27;;
34832;SDS011;55941;50.800;4.342;2023-05-10T03:03:00;27.02;;;13.05;;
34832;SDS011;55941;50.800;4.342;2023-05-10T03:05:26;27.23;;;13.60;;
34832;SDS011;55941;50.800;4.342;2023-05-10T03:07:53;25.75;;;13.40;;
34832;SDS011;55941;50.800;4.342;2023-05-10T03:10:19;25.98;;;13.35;;
34832;SDS011;55941;50.800;4.342;2023-05-10T03:12:55;27.33;;;14.32;;
34832;SDS011;55941;50.800;4.342;2023-05-10T03:15:42;31.38;;;14.52;;
34832;SDS011;55941;50.800;4.342;2023-05-10T03:18:18;27.70;;;14.70;;
34832;SDS011;55941;50.800;4.342;2023-05-10T03:20:48;27.92;;;15.50;;
34832;SDS011;55941;50.800;4.342;2023-05-10T03:23:25;29.98;;;14.68;;
34832;SDS011;55941;50.800;4.342;2023-05-10T03:25:55;28.23;;;14.32;;
34832;SDS011;55941;50.800;4.342;2023-05-10T03:28:21;29.08;;;15.23;;
34832;SDS011;55941;50.800;4.342;2023-05-10T03:30:50;32.10;;;15.40;;
34832;SDS011;55941;50.800;4.342;2023-05-10T03:33:18;29.38;;;14.85;;
34832;SDS011;55941;50.800;4.342;2023-05-10T03:35:45;35.58;;;16.23;;
34832;SDS011;55941;50.800;4.342;2023-05-10T03:38:11;29.23;;;14.98;;
34832;SDS011;55941;50.800;4.342;2023-05-10T03:40:37;26.20;;;14.88;;
34832;SDS011;55941;50.800;4.342;2023-05-10T03:43:03;33.85;;;14.43;;
34832;SDS011;55941;50.800;4.342;2023-05-10T03:45:29;27.58;;;15.23;;
34832;SDS011;55941;50.800;4.342;2023-05-10T03:47:56;30.60;;;14.77;;
34832;SDS011;55941;50.800;4.342;2023-05-10T03:50:25;29.05;;;15.02;;
34832;SDS011;55941;50.800;4.342;2023-05-10T03:52:51;26.48;;;15.35;;
34832;SDS011;55941;50.800;4.342;2023-05-10T03:55:17;28.52;;;16.10;;
34832;SDS011;55941;50.800;4.342;2023-05-10T03:57:42;35.78;;;16.30;;
34832;SDS011;55941;50.800;4.342;2023-05-10T04:00:09;31.02;;;16.08;;
34832;SDS011;55941;50.800;4.342;2023-05-10T04:02:35;28.83;;;15.35;;
34832;SDS011;55941;50.800;4.342;2023-05-10T04:05:01;33.40;;;16.27;;
34832;SDS011;55941;50.800;4.342;2023-05-10T04:07:28;36.90;;;17.08;;
34832;SDS011;55941;50.800;4.342;2023-05-10T04:09:54;36.53;;;18.10;;
34832;SDS011;55941;50.800;4.342;2023-05-10T04:12:21;35.15;;;18.10;;
34832;SDS011;55941;50.800;4.342;2023-05-10T04:14:46;38.42;;;17.27;;
34832;SDS011;55941;50.800;4.342;2023-05-10T04:17:12;34.30;;;16.88;;
34832;SDS011;55941;50.800;4.342;2023-05-10T04:19:38;36.20;;;18.63;;
34832;SDS011;55941;50.800;4.342;2023-05-10T04:22:04;32.53;;;17.20;;
34832;SDS011;55941;50.800;4.342;2023-05-10T04:24:30;39.40;;;18.33;;
34832;SDS011;55941;50.800;4.342;2023-05-10T04:26:56;40.45;;;18.60;;
34832;SDS011;55941;50.800;4.342;2023-05-10T04:29:22;31.77;;;16.42;;
34832;SDS011;55941;50.800;4.342;2023-05-10T04:31:48;32.47;;;15.80;;
34832;SDS011;55941;50.800;4.342;2023-05-10T04:34:13;29.80;;;15.00;;
34832;SDS011;55941;50.800;4.342;2023-05-10T04:36:39;27.50;;;14.32;;
34832;SDS011;55941;50.800;4.342;2023-05-10T04:39:05;33.40;;;14.82;;
34832;SDS011;55941;50.800;4.342;2023-05-10T04:41:31;25.67;;;13.65;;
34832;SDS011;55941;50.800;4.342;2023-05-10T04:43:56;34.72;;;14.48;;
34832;SDS011;55941;50.800;4.342;2023-05-10T04:46:22;26.20;;;12.77;;
34832;SDS011;55941;50.800;4.342;2023-05-10T04:48:48;31.85;;;13.57;;
34832;SDS011;55941;50.800;4.342;2023-05-10T04:51:13;25.55;;;11.68;;
34832;SDS011;55941;50.800;4.342;2023-05-10T04:53:39;30.85;;;12.85;;
34832;SDS011;55941;50.800;4.342;2023-05-10T04:56:05;24.58;;;11.38;;
34832;SDS011;55941;50.800;4.342;2023-05-10T04:58:31;27.92;;;12.80;;
34832;SDS011;55941;50.800;4.342;2023-05-10T05:00:59;27.63;;;13.48;;
34832;SDS011;55941;50.800;4.342;2023-05-10T05:03:31;27.13;;;11.88;;
34832;SDS011;55941;50.800;4.342;2023-05-10T05:05:57;29.33;;;13.35;;
34832;SDS011;55941;50.800;4.342;2023-05-10T05:08:23;29.15;;;13.10;;
34832;SDS011;55941;50.800;4.342;2023-05-10T05:10:49;24.52;;;11.77;;
34832;SDS011;55941;50.800;4.342;2023-05-10T05:13:17;27.60;;;12.80;;
34832;SDS011;55941;50.800;4.342;2023-05-10T05:15:43;27.35;;;12.90;;
34832;SDS011;55941;50.800;4.342;2023-05-10T05:18:09;23.67;;;12.82;;
34832;SDS011;55941;50.800;4.342;2023-05-10T05:20:34;26.92;;;13.45;;
34832;SDS011;55941;50.800;4.342;2023-05-10T05:23:00;34.10;;;13.77;;
34832;SDS011;55941;50.800;4.342;2023-05-10T05:25:27;31.63;;;13.55;;
34832;SDS011;55941;50.800;4.342;2023-05-10T05:27:53;34.70;;;14.20;;
34832;SDS011;55941;50.800;4.342;2023-05-10T05:30:19;27.40;;;13.40;;
34832;SDS011;55941;50.800;4.342;2023-05-10T05:32:45;31.15;;;13.18;;
34832;SDS011;55941;50.800;4.342;2023-05-10T05:35:13;30.33;;;13.90;;
34832;SDS011;55941;50.800;4.342;2023-05-10T05:37:39;36.35;;;13.85;;
34832;SDS011;55941;50.800;4.342;2023-05-10T05:40:05;38.28;;;15.05;;
34832;SDS011;55941;50.800;4.342;2023-05-10T05:42:31;39.08;;;14.20;;
34832;SDS011;55941;50.800;4.342;2023-05-10T05:44:57;31.80;;;13.90;;
34832;SDS011;55941;50.800;4.342;2023-05-10T05:47:23;40.03;;;15.05;;
34832;SDS011;55941;50.800;4.342;2023-05-10T05:49:49;30.48;;;13.07;;
34832;SDS011;55941;50.800;4.342;2023-05-10T05:52:15;30.73;;;12.82;;
34832;SDS011;55941;50.800;4.342;2023-05-10T05:54:41;30.88;;;12.15;;
34832;SDS011;55941;50.800;4.342;2023-05-10T05:57:06;27.27;;;11.05;;
34832;SDS011;55941;50.800;4.342;2023-05-10T05:59:32;28.83;;;10.55;;
34832;SDS011;55941;50.800;4.342;2023-05-10T06:01:58;32.22;;;11.43;;
34832;SDS011;55941;50.800;4.342;2023-05-10T06:04:24;31.55;;;9.95;;
34832;SDS011;55941;50.800;4.342;2023-05-10T06:06:50;26.77;;;10.43;;
34832;SDS011;55941;50.800;4.342;2023-05-10T06:09:16;27.65;;;10.38;;
34832;SDS011;55941;50.800;4.342;2023-05-10T06:11:42;24.75;;;9.80;;
34832;SDS011;55941;50.800;4.342;2023-05-10T06:14:08;24.83;;;10.05;;
34832;SDS011;55941;50.800;4.342;2023-05-10T06:16:35;28.02;;;9.90;;
34832;SDS011;55941;50.800;4.342;2023-05-10T06:19:01;22.63;;;9.23;;
34832;SDS011;55941;50.800;4.342;2023-05-10T06:21:27;24.00;;;9.88;;
34832;SDS011;55941;50.800;4.342;2023-05-10T06:23:54;22.02;;;9.73;;
34832;SDS011;55941;50.800;4.342;2023-05-10T06:26:20;23.10;;;9.38;;
34832;SDS011;55941;50.800;4.342;2023-05-10T06:28:46;20.75;;;9.50;;
34832;SDS011;55941;50.800;4.342;2023-05-10T06:31:12;24.00;;;9.55;;
34832;SDS011;55941;50.800;4.342;2023-05-10T06:33:37;16.08;;;9.07;;
34832;SDS011;55941;50.800;4.342;2023-05-10T06:36:04;21.90;;;9.70;;
34832;SDS011;55941;50.800;4.342;2023-05-10T06:38:31;22.95;;;9.20;;
34832;SDS011;55941;50.800;4.342;2023-05-10T06:40:57;20.10;;;8.48;;
34832;SDS011;55941;50.800;4.342;2023-05-10T06:43:22;21.70;;;8.60;;
34832;SDS011;55941;50.800;4.342;2023-05-10T06:45:49;17.30;;;7.82;;
34832;SDS011;55941;50.800;4.342;2023-05-10T06:48:15;14.25;;;7.43;;
34832;SDS011;55941;50.800;4.342;2023-05-10T06:50:41;16.75;;;6.60;;
34832;SDS011;55941;50.800;4.342;2023-05-10T06:53:06;14.48;;;6.43;;
34832;SDS011;55941;50.800;4.342;2023-05-10T07:04:46;14.38;;;7.93;;
34832;SDS011;55941;50.800;4.342;2023-05-10T07:07:13;16.80;;;7.70;;
34832;SDS011;55941;50.800;4.342;2023-05-10T07:09:39;18.35;;;8.10;;
34832;SDS011;55941;50.800;4.342;2023-05-10T07:12:05;31.67;;;8.05;;
34832;SDS011;55941;50.800;4.342;2023-05-10T07:14:31;24.38;;;8.65;;
34832;SDS011;55941;50.800;4.342;2023-05-10T07:16:57;28.20;;;8.82;;
34832;SDS011;55941;50.800;4.342;2023-05-10T07:19:23;17.77;;;8.02;;
34832;SDS011;55941;50.800;4.342;2023-05-10T07:21:49;31.05;;;8.90;;
34832;SDS011;55941;50.800;4.342;2023-05-10T07:24:15;23.30;;;8.70;;
34832;SDS011;55941;50.800;4.342;2023-05-10T07:26:42;23.30;;;9.70;;
34832;SDS011;55941;50.800;4.342;2023-05-10T07:29:08;23.65;;;9.90;;
34832;SDS011;55941;50.800;4.342;2023-05-10T07:31:35;20.13;;;10.05;;
34832;SDS011;55941;50.800;4.342;2023-05-10T07:34:01;19.10;;;9.15;;
34832;SDS011;55941;50.800;4.342;2023-05-10T07:36:27;21.65;;;9.32;;
34832;SDS011;55941;50.800;4.342;2023-05-10T07:38:53;23.75;;;9.20;;
34832;SDS011;55941;50.800;4.342;2023-05-10T07:41:20;17.83;;;8.32;;
34832;SDS011;55941;50.800;4.342;2023-05-10T07:43:46;18.08;;;8.15;;
34832;SDS011;55941;50.800;4.342;2023-05-10T07:46:12;18.75;;;7.57;;
34832;SDS011;55941;50.800;4.342;2023-05-10T07:48:38;14.50;;;6.78;;
34832;SDS011;55941;50.800;4.342;2023-05-10T07:51:05;12.70;;;6.22;;
34832;SDS011;55941;50.800;4.342;2023-05-10T07:53:34;13.45;;;5.93;;
34832;SDS011;55941;50.800;4.342;2023-05-10T07:56:19;12.63;;;6.18;;
34832;SDS011;55941;50.800;4.342;2023-05-10T07:58:51;10.07;;;5.50;;
34832;SDS011;55941;50.800;4.342;2023-05-10T08:01:18;11.38;;;5.00;;
34832;SDS011;55941;50.800;4.342;2023-05-10T08:03:44;9.07;;;4.85;;
34832;SDS011;55941;50.800;4.342;2023-05-10T08:06:12;13.27;;;5.47;;
34832;SDS011;55941;50.800;4.342;2023-05-10T08:08:40;11.52;;;5.00;;
34832;SDS011;55941;50.800;4.342;2023-05-10T08:11:07;9.55;;;5.15;;
34832;SDS011;55941;50.800;4.342;2023-05-10T08:13:33;7.82;;;4.40;;
34832;SDS011;55941;50.800;4.342;2023-05-10T08:15:59;11.07;;;4.18;;
34832;SDS011;55941;50.800;4.342;2023-05-10T08:18:25;10.20;;;4.10;;
34832;SDS011;55941;50.800;4.342;2023-05-10T08:20:51;6.53;;;4.20;;
34832;SDS011;55941;50.800;4.342;2023-05-10T08:23:17;7.28;;;4.45;;
34832;SDS011;55941;50.800;4.342;2023-05-10T08:25:43;6.72;;;3.95;;
34832;SDS011;55941;50.800;4.342;2023-05-10T08:28:09;6.40;;;4.05;;
34832;SDS011;55941;50.800;4.342;2023-05-10T08:30:35;8.25;;;4.05;;
34832;SDS011;55941;50.800;4.342;2023-05-10T08:33:01;9.23;;;4.47;;
34832;SDS011;55941;50.800;4.342;2023-05-10T08:35:27;8.15;;;4.53;;
34832;SDS011;55941;50.800;4.342;2023-05-10T08:37:53;6.32;;;4.03;;
34832;SDS011;55941;50.800;4.342;2023-05-10T08:40:19;5.70;;;4.20;;
34832;SDS011;55941;50.800;4.342;2023-05-10T08:42:49;5.75;;;4.05;;
34832;SDS011;55941;50.800;4.342;2023-05-10T08:45:21;6.65;;;4.05;;
34832;SDS011;55941;50.800;4.342;2023-05-10T08:47:49;9.98;;;5.05;;
34832;SDS011;55941;50.800;4.342;2023-05-10T08:50:18;10.00;;;4.78;;
34832;SDS011;55941;50.800;4.342;2023-05-10T08:52:46;6.65;;;4.95;;
34832;SDS011;55941;50.800;4.342;2023-05-10T08:55:15;11.57;;;6.43;;
34832;SDS011;55941;50.800;4.342;2023-05-10T08:57:41;10.68;;;5.95;;
34832;SDS011;55941;50.800;4.342;2023-05-10T09:00:07;9.95;;;6.15;;
34832;SDS011;55941;50.800;4.342;2023-05-10T09:02:34;12.40;;;5.85;;
34832;SDS011;55941;50.800;4.342;2023-05-10T09:05:02;10.80;;;5.60;;
34832;SDS011;55941;50.800;4.342;2023-05-10T09:07:29;12.93;;;5.05;;
34832;SDS011;55941;50.800;4.342;2023-05-10T09:09:56;7.35;;;4.97;;
34832;SDS011;55941;50.800;4.342;2023-05-10T09:12:23;7.90;;;5.10;;
34832;SDS011;55941;50.800;4.342;2023-05-10T09:14:49;11.57;;;5.68;;
34832;SDS011;55941;50.800;4.342;2023-05-10T09:17:17;8.20;;;5.30;;
34832;SDS011;55941;50.800;4.342;2023-05-10T09:19:44;12.88;;;6.05;;
34832;SDS011;55941;50.800;4.342;2023-05-10T09:22:10;8.90;;;5.25;;
34832;SDS011;55941;50.800;4.342;2023-05-10T09:24:36;8.43;;;5.35;;
34832;SDS011;55941;50.800;4.342;2023-05-10T09:27:07;13.38;;;5.43;;
34832;SDS011;55941;50.800;4.342;2023-05-10T09:29:41;9.98;;;5.90;;
34832;SDS011;55941;50.800;4.342;2023-05-10T09:32:07;9.93;;;5.10;;
34832;SDS011;55941;50.800;4.342;2023-05-10T09:34:34;10.13;;;5.22;;
34832;SDS011;55941;50.800;4.342;2023-05-10T09:37:05;9.00;;;4.80;;
34832;SDS011;55941;50.800;4.342;2023-05-10T09:39:35;7.57;;;4.82;;
34832;SDS011;55941;50.800;4.342;2023-05-10T09:42:03;9.07;;;5.05;;
34832;SDS011;55941;50.800;4.342;2023-05-10T09:44:31;6.53;;;5.30;;
34832;SDS011;55941;50.800;4.342;2023-05-10T09:46:58;10.88;;;5.20;;
34832;SDS011;55941;50.800;4.342;2023-05-10T09:49:25;7.85;;;5.40;;
34832;SDS011;55941;50.800;4.342;2023-05-10T09:52:04;6.75;;;4.70;;
34832;SDS011;55941;50.800;4.342;2023-05-10T09:54:32;8.57;;;4.80;;
34832;SDS011;55941;50.800;4.342;2023-05-10T09:56:59;5.85;;;4.80;;
34832;SDS011;55941;50.800;4.342;2023-05-10T09:59:26;8.60;;;5.20;;
34832;SDS011;55941;50.800;4.342;2023-05-10T10:01:56;9.00;;;5.32;;
34832;SDS011;55941;50.800;4.342;2023-05-10T10:04:27;10.52;;;5.40;;
34832;SDS011;55941;50.800;4.342;2023-05-10T10:07:00;8.23;;;5.78;;
34832;SDS011;55941;50.800;4.342;2023-05-10T10:09:30;10.10;;;5.88;;
34832;SDS011;55941;50.800;4.342;2023-05-10T10:11:57;7.20;;;5.25;;
34832;SDS011;55941;50.800;4.342;2023-05-10T10:14:24;7.38;;;5.07;;
34832;SDS011;55941;50.800;4.342;2023-05-10T10:16:51;11.77;;;5.38;;
34832;SDS011;55941;50.800;4.342;2023-05-10T10:19:20;7.00;;;4.72;;
34832;SDS011;55941;50.800;4.342;2023-05-10T10:21:47;10.02;;;5.00;;
34832;SDS011;55941;50.800;4.342;2023-05-10T10:24:14;8.48;;;4.43;;
34832;SDS011;55941;50.800;4.342;2023-05-10T10:26:41;6.78;;;4.20;;
34832;SDS011;55941;50.800;4.342;2023-05-10T10:34:55;8.13;;;4.80;;
34832;SDS011;55941;50.800;4.342;2023-05-10T10:37:22;8.32;;;4.70;;
34832;SDS011;55941;50.800;4.342;2023-05-10T10:39:48;7.47;;;4.28;;
34832;SDS011;55941;50.800;4.342;2023-05-10T10:42:19;10.02;;;4.20;;
34832;SDS011;55941;50.800;4.342;2023-05-10T10:45:14;6.82;;;4.60;;
34832;SDS011;55941;50.800;4.342;2023-05-10T10:47:41;11.75;;;5.10;;
34832;SDS011;55941;50.800;4.342;2023-05-10T10:50:08;7.07;;;4.45;;
34832;SDS011;55941;50.800;4.342;2023-05-10T10:52:36;6.65;;;4.68;;
34832;SDS011;55941;50.800;4.342;2023-05-10T10:55:18;9.68;;;5.32;;
34832;SDS011;55941;50.800;4.342;2023-05-10T10:57:52;9.82;;;5.45;;
34832;SDS011;55941;50.800;4.342;2023-05-10T11:03:19;9.32;;;5.15;;
34832;SDS011;55941;50.800;4.342;2023-05-10T11:05:46;7.57;;;4.70;;
34832;SDS011;55941;50.800;4.342;2023-05-10T11:08:14;7.90;;;4.68;;
34832;SDS011;55941;50.800;4.342;2023-05-10T11:11:01;8.93;;;5.30;;
34832;SDS011;55941;50.800;4.342;2023-05-10T11:13:33;10.25;;;4.93;;
34832;SDS011;55941;50.800;4.342;2023-05-10T11:16:18;5.93;;;4.50;;
34832;SDS011;55941;50.800;4.342;2023-05-10T11:19:04;6.13;;;4.65;;
34832;SDS011;55941;50.800;4.342;2023-05-10T11:21:33;6.97;;;4.80;;
34832;SDS011;55941;50.800;4.342;2023-05-10T11:24:13;7.55;;;4.45;;
34832;SDS011;55941;50.800;4.342;2023-05-10T11:26:40;5.60;;;4.00;;
34832;SDS011;55941;50.800;4.342;2023-05-10T11:29:07;7.05;;;4.20;;
34832;SDS011;55941;50.800;4.342;2023-05-10T11:31:34;8.30;;;3.55;;
34832;SDS011;55941;50.800;4.342;2023-05-10T11:34:00;6.43;;;4.18;;
34832;SDS011;55941;50.800;4.342;2023-05-10T11:36:33;4.90;;;3.75;;
34832;SDS011;55941;50.800;4.342;2023-05-10T11:39:01;3.17;;;2.45;;
34832;SDS011;55941;50.800;4.342;2023-05-10T11:41:28;5.20;;;4.13;;
34832;SDS011;55941;50.800;4.342;2023-05-10T11:43:55;6.60;;;4.20;;
34832;SDS011;55941;50.800;4.342;2023-05-10T11:46:23;4.72;;;3.90;;
34832;SDS011;55941;50.800;4.342;2023-05-10T11:48:52;7.32;;;3.65;;
34832;SDS011;55941;50.800;4.342;2023-05-10T11:51:24;8.98;;;4.13;;
34832;SDS011;55941;50.800;4.342;2023-05-10T11:53:52;5.20;;;3.58;;
34832;SDS011;55941;50.800;4.342;2023-05-10T11:56:19;5.38;;;4.13;;
34832;SDS011;55941;50.800;4.342;2023-05-10T11:58:51;6.10;;;3.50;;
34832;SDS011;55941;50.800;4.342;2023-05-10T12:01:22;7.30;;;4.47;;
34832;SDS011;55941;50.800;4.342;2023-05-10T12:03:52;6.43;;;4.55;;
34832;SDS011;55941;50.800;4.342;2023-05-10T12:06:21;8.18;;;4.75;;
34832;SDS011;55941;50.800;4.342;2023-05-10T12:08:47;20.23;;;7.10;;
34832;SDS011;55941;50.800;4.342;2023-05-10T12:11:17;11.20;;;5.82;;
34832;SDS011;55941;50.800;4.342;2023-05-10T12:13:44;7.72;;;3.70;;
34832;SDS011;55941;50.800;4.342;2023-05-10T12:16:22;7.00;;;3.95;;
34832;SDS011;55941;50.800;4.342;2023-05-10T12:18:53;7.40;;;4.15;;
34832;SDS011;55941;50.800;4.342;2023-05-10T12:21:21;8.27;;;4.43;;
34832;SDS011;55941;50.800;4.342;2023-05-10T12:23:51;8.38;;;4.50;;
34832;SDS011;55941;50.800;4.342;2023-05-10T12:26:18;7.63;;;4.70;;
34832;SDS011;55941;50.800;4.342;2023-05-10T12:28:47;9.00;;;4.65;;
34832;SDS011;55941;50.800;4.342;2023-05-10T12:31:13;7.50;;;4.35;;
34832;SDS011;55941;50.800;4.342;2023-05-10T12:33:39;8.63;;;4.55;;
34832;SDS011;55941;50.800;4.342;2023-05-10T12:36:07;9.82;;;5.20;;
34832;SDS011;55941;50.800;4.342;2023-05-10T12:38:35;11.30;;;6.10;;
34832;SDS011;55941;50.800;4.342;2023-05-10T12:41:11;11.52;;;6.07;;
34832;SDS011;55941;50.800;4.342;2023-05-10T12:43:38;15.60;;;5.68;;
34832;SDS011;55941;50.800;4.342;2023-05-10T12:46:09;9.48;;;5.25;;
34832;SDS011;55941;50.800;4.342;2023-05-10T12:48:39;5.30;;;4.13;;
34832;SDS011;55941;50.800;4.342;2023-05-10T12:51:06;5.07;;;3.90;;
34832;SDS011;55941;50.800;4.342;2023-05-10T12:53:37;8.73;;;4.32;;
34832;SDS011;55941;50.800;4.342;2023-05-10T12:56:04;8.30;;;4.53;;
34832;SDS011;55941;50.800;4.342;2023-05-10T12:58:30;7.22;;;3.95;;
34832;SDS011;55941;50.800;4.342;2023-05-10T13:00:56;5.28;;;3.08;;
34832;SDS011;55941;50.800;4.342;2023-05-10T13:03:23;4.00;;;2.83;;
34832;SDS011;55941;50.800;4.342;2023-05-10T13:05:49;6.78;;;2.60;;
34832;SDS011;55941;50.800;4.342;2023-05-10T13:08:15;6.45;;;2.78;;
34832;SDS011;55941;50.800;4.342;2023-05-10T13:10:41;2.97;;;2.03;;
34832;SDS011;55941;50.800;4.342;2023-05-10T13:13:07;10.60;;;2.45;;
34832;SDS011;55941;50.800;4.342;2023-05-10T13:15:34;3.65;;;2.15;;
34832;SDS011;55941;50.800;4.342;2023-05-10T13:18:00;3.75;;;2.30;;
34832;SDS011;55941;50.800;4.342;2023-05-10T13:20:25;3.33;;;2.00;;
34832;SDS011;55941;50.800;4.342;2023-05-10T13:22:52;3.70;;;2.28;;
34832;SDS011;55941;50.800;4.342;2023-05-10T13:25:18;4.63;;;2.85;;
34832;SDS011;55941;50.800;4.342;2023-05-10T13:27:44;5.43;;;3.20;;
34832;SDS011;55941;50.800;4.342;2023-05-10T13:30:10;9.18;;;3.58;;
34832;SDS011;55941;50.800;4.342;2023-05-10T13:32:37;9.32;;;4.47;;
34832;SDS011;55941;50.800;4.342;2023-05-10T13:35:04;7.68;;;4.40;;
34832;SDS011;55941;50.800;4.342;2023-05-10T13:37:31;9.38;;;4.43;;
34832;SDS011;55941;50.800;4.342;2023-05-10T13:40:02;11.20;;;4.57;;
34832;SDS011;55941;50.800;4.342;2023-05-10T13:42:29;6.75;;;4.03;;
34832;SDS011;55941;50.800;4.342;2023-05-10T13:44:56;11.23;;;4.50;;
34832;SDS011;55941;50.800;4.342;2023-05-10T13:47:22;10.55;;;4.45;;
34832;SDS011;55941;50.800;4.342;2023-05-10T13:49:48;12.77;;;4.80;;
34832;SDS011;55941;50.800;4.342;2023-05-10T13:52:14;9.85;;;5.70;;
34832;SDS011;55941;50.800;4.342;2023-05-10T13:54:40;11.23;;;5.22;;
34832;SDS011;55941;50.800;4.342;2023-05-10T13:57:06;11.32;;;5.72;;
34832;SDS011;55941;50.800;4.342;2023-05-10T13:59:32;9.25;;;5.22;;
34832;SDS011;55941;50.800;4.342;2023-05-10T14:01:59;8.23;;;5.60;;
34832;SDS011;55941;50.800;4.342;2023-05-10T14:04:27;11.35;;;5.38;;
34832;SDS011;55941;50.800;4.342;2023-05-10T14:06:53;8.50;;;6.05;;
34832;SDS011;55941;50.800;4.342;2023-05-10T14:09:19;7.47;;;5.72;;
34832;SDS011;55941;50.800;4.342;2023-05-10T14:11:45;11.48;;;7.03;;
34832;SDS011;55941;50.800;4.342;2023-05-10T14:14:11;10.88;;;7.57;;
34832;SDS011;55941;50.800;4.342;2023-05-10T14:16:41;11.50;;;7.60;;
34832;SDS011;55941;50.800;4.342;2023-05-10T14:19:08;14.23;;;8.20;;
34832;SDS011;55941;50.800;4.342;2023-05-10T14:21:34;19.30;;;8.63;;
34832;SDS011;55941;50.800;4.342;2023-05-10T14:24:00;11.85;;;8.00;;
34832;SDS011;55941;50.800;4.342;2023-05-10T14:26:26;14.88;;;9.07;;
34832;SDS011;55941;50.800;4.342;2023-05-10T14:28:52;18.00;;;8.02;;
34832;SDS011;55941;50.800;4.342;2023-05-10T14:31:20;12.80;;;8.18;;
34832;SDS011;55941;50.800;4.342;2023-05-10T14:33:49;12.77;;;7.57;;
34832;SDS011;55941;50.800;4.342;2023-05-10T14:36:14;13.20;;;7.00;;
34832;SDS011;55941;50.800;4.342;2023-05-10T14:38:40;12.77;;;7.72;;
34832;SDS011;55941;50.800;4.342;2023-05-10T14:41:07;17.35;;;8.23;;
34832;SDS011;55941;50.800;4.342;2023-05-10T14:43:33;12.95;;;9.13;;
34832;SDS011;55941;50.800;4.342;2023-05-10T14:46:00;14.48;;;8.82;;
34832;SDS011;55941;50.800;4.342;2023-05-10T14:48:26;12.77;;;8.95;;
34832;SDS011;55941;50.800;4.342;2023-05-10T14:50:55;13.18;;;8.82;;
34832;SDS011;55941;50.800;4.342;2023-05-10T14:53:21;19.92;;;8.93;;
34832;SDS011;55941;50.800;4.342;2023-05-10T14:55:47;14.75;;;8.43;;
34832;SDS011;55941;50.800;4.342;2023-05-10T14:58:13;12.82;;;8.45;;
34832;SDS011;55941;50.800;4.342;2023-05-10T15:00:40;11.80;;;7.57;;
34832;SDS011;55941;50.800;4.342;2023-05-10T15:03:06;15.48;;;8.73;;